Terminal Aerodrome Forecast
Issued by NWS

Home | Current Version | Previous Version | Text Only | Print | Product List | Glossary On
Versions: 1 2 3 4 5 6 7 8 9 10 11 12 13
645
FTUS44 KMAF 222320
TAFINK
TAF
KINK 222320Z 2300/2324 14017G27KT P6SM SCT040 SCT250
     FM230200 14016G26KT P6SM FEW200
     FM230900 13015KT P6SM OVC019
     FM231200 13016KT P6SM OVC009
     FM231400 14018KT P6SM OVC019
     FM231600 14019G29KT P6SM SCT024 OVC250=

USA.gov is the U.S. government's official web portal to all federal, state and local government web resources and services.